createdAt,value
2022-08-20T00:01:01.802Z,11.40
2022-08-20T00:01:56.145Z,10.00
2022-08-20T00:02:56.102Z,9.20
2022-08-20T00:03:56.109Z,8.80
2022-08-20T00:04:56.110Z,8.00
2022-08-20T00:05:56.800Z,8.80
2022-08-20T00:06:56.118Z,9.20
2022-08-20T00:07:56.281Z,9.80
2022-08-20T00:08:56.120Z,8.90
2022-08-20T00:09:56.119Z,8.80
2022-08-20T00:10:56.125Z,8.50
2022-08-20T00:11:56.133Z,7.70
2022-08-20T00:12:56.131Z,7.70
2022-08-20T00:13:56.133Z,7.80
2022-08-20T00:14:56.135Z,7.90
2022-08-20T00:15:56.137Z,9.90
2022-08-20T00:16:56.137Z,10.00
2022-08-20T00:17:56.425Z,9.80
2022-08-20T00:18:56.150Z,10.30
2022-08-20T00:19:56.148Z,11.00
2022-08-20T00:20:56.151Z,10.70
2022-08-20T00:21:58.399Z,10.50
2022-08-20T00:22:56.156Z,10.10
2022-08-20T00:23:56.163Z,10.30
2022-08-20T00:24:56.162Z,10.50
2022-08-20T00:25:56.160Z,10.90
2022-08-20T00:26:56.162Z,10.90
2022-08-20T00:27:56.308Z,10.50
2022-08-20T00:28:56.170Z,11.20
2022-08-20T00:29:56.172Z,12.50
2022-08-20T00:30:56.175Z,12.80
2022-08-20T00:31:56.173Z,13.20
2022-08-20T00:32:56.176Z,12.50
2022-08-20T00:33:56.177Z,12.80
2022-08-20T00:34:56.183Z,13.70
2022-08-20T00:35:56.186Z,13.30
2022-08-20T00:36:56.188Z,13.40
2022-08-20T00:38:00.393Z,13.10
2022-08-20T00:38:56.192Z,14.00
2022-08-20T00:39:56.243Z,13.70
2022-08-20T00:40:56.196Z,14.30
2022-08-20T00:41:56.196Z,14.30
2022-08-20T00:42:56.200Z,14.90
2022-08-20T00:43:56.201Z,15.80
2022-08-20T00:44:56.208Z,15.60
2022-08-20T00:45:56.206Z,15.00
2022-08-20T00:46:56.211Z,15.90
2022-08-20T00:47:56.321Z,15.60
2022-08-20T00:48:56.213Z,15.70
2022-08-20T00:49:56.216Z,15.40
2022-08-20T00:50:56.219Z,16.30
2022-08-20T00:51:56.224Z,16.10
2022-08-20T00:52:56.226Z,16.10
2022-08-20T00:53:56.225Z,16.70
2022-08-20T00:54:56.232Z,17.10
2022-08-20T00:55:56.231Z,16.80
2022-08-20T00:56:56.237Z,16.40
2022-08-20T00:58:00.802Z,15.60
2022-08-20T00:58:56.240Z,16.00
2022-08-20T00:59:56.239Z,15.60
2022-08-20T01:00:56.244Z,15.20
2022-08-20T01:01:56.713Z,15.30
2022-08-20T01:02:56.246Z,14.80
2022-08-20T01:03:56.253Z,14.30
2022-08-20T01:04:56.251Z,15.10
2022-08-20T01:05:56.254Z,15.60
2022-08-20T01:06:56.257Z,15.20
2022-08-20T01:07:56.446Z,14.40
2022-08-20T01:08:56.261Z,13.70
2022-08-20T01:09:59.070Z,13.70
2022-08-20T01:10:56.270Z,11.90
2022-08-20T01:11:56.267Z,12.10
2022-08-20T01:12:59.038Z,11.10
2022-08-20T01:13:56.275Z,11.50
2022-08-20T01:14:56.278Z,11.10
2022-08-20T01:15:56.278Z,10.00
2022-08-20T01:16:56.283Z,12.70
2022-08-20T01:17:56.429Z,10.30
2022-08-20T01:18:56.291Z,10.30
2022-08-20T01:19:56.286Z,10.00
2022-08-20T01:20:56.288Z,10.10
2022-08-20T01:21:56.290Z,10.10
2022-08-20T01:22:56.295Z,9.60
2022-08-20T01:23:56.296Z,9.60
2022-08-20T01:24:56.303Z,9.10
2022-08-20T01:25:56.304Z,9.70
2022-08-20T01:26:56.306Z,9.90
2022-08-20T01:27:56.476Z,9.40
2022-08-20T01:28:56.311Z,9.10
2022-08-20T01:29:56.313Z,9.80
2022-08-20T01:30:56.315Z,9.40
2022-08-20T01:31:56.321Z,9.80
2022-08-20T01:32:56.317Z,10.20
2022-08-20T01:33:56.320Z,9.70
2022-08-20T01:34:56.325Z,9.20
2022-08-20T01:35:56.324Z,9.40
2022-08-20T01:36:56.333Z,9.40
2022-08-20T01:37:56.561Z,9.40
2022-08-20T01:38:56.333Z,9.20
2022-08-20T01:39:56.427Z,9.70
2022-08-20T01:40:56.349Z,9.80
2022-08-20T01:41:56.339Z,9.40
2022-08-20T01:42:59.057Z,9.20
2022-08-20T01:43:56.344Z,9.20
2022-08-20T01:44:56.350Z,9.60
2022-08-20T01:45:56.348Z,10.20
2022-08-20T01:46:57.623Z,9.50
2022-08-20T01:47:56.572Z,9.30
2022-08-20T01:48:56.362Z,9.80
2022-08-20T01:49:56.361Z,10.20
2022-08-20T01:50:56.367Z,10.50
2022-08-20T01:51:56.364Z,10.50
2022-08-20T01:52:56.369Z,10.70
2022-08-20T01:53:56.375Z,12.10
2022-08-20T01:54:56.374Z,11.50
2022-08-20T01:55:56.375Z,11.30
2022-08-20T01:56:56.384Z,11.40
2022-08-20T01:57:56.545Z,11.10
2022-08-20T01:58:59.173Z,11.20
2022-08-20T01:59:56.387Z,11.20
2022-08-20T02:00:56.394Z,10.80
2022-08-20T02:01:56.444Z,10.70
2022-08-20T02:02:56.392Z,11.30
2022-08-20T02:03:56.396Z,11.40
2022-08-20T02:04:56.405Z,11.30
2022-08-20T02:05:56.399Z,11.30
2022-08-20T02:06:57.713Z,10.80
2022-08-20T02:07:56.552Z,11.20
2022-08-20T02:08:56.410Z,11.30
2022-08-20T02:09:56.411Z,11.10
2022-08-20T02:10:56.415Z,12.50
2022-08-20T02:11:56.422Z,12.00
2022-08-20T02:12:56.420Z,12.30
2022-08-20T02:13:56.419Z,12.80
2022-08-20T02:14:56.422Z,12.40
2022-08-20T02:15:56.424Z,13.20
2022-08-20T02:16:56.430Z,12.90
2022-08-20T02:17:56.576Z,12.90
2022-08-20T02:18:56.436Z,13.10
2022-08-20T02:19:56.434Z,13.10
2022-08-20T02:20:56.438Z,14.20
2022-08-20T02:21:56.437Z,13.10
2022-08-20T02:22:56.452Z,13.80
2022-08-20T02:23:56.443Z,13.40
2022-08-20T02:24:56.446Z,13.50
2022-08-20T02:25:56.445Z,14.60
2022-08-20T02:26:56.455Z,14.50
2022-08-20T02:27:56.625Z,14.40
2022-08-20T02:28:56.455Z,12.60
2022-08-20T02:29:56.458Z,13.20
2022-08-20T02:30:56.464Z,13.70
2022-08-20T02:32:24.928Z,12.80
2022-08-20T02:32:56.552Z,12.90
2022-08-20T02:34:22.367Z,12.90
2022-08-20T02:34:56.468Z,13.40
2022-08-20T02:35:56.699Z,12.80
2022-08-20T02:36:56.475Z,13.00
2022-08-20T02:37:56.694Z,12.70
2022-08-20T02:38:56.481Z,13.00
2022-08-20T02:39:56.577Z,12.40
2022-08-20T02:40:56.484Z,12.00
2022-08-20T02:41:56.487Z,12.60
2022-08-20T02:42:56.488Z,12.70
2022-08-20T02:43:56.497Z,13.00
2022-08-20T02:44:56.493Z,12.40
2022-08-20T02:45:56.496Z,12.50
2022-08-20T02:46:56.496Z,14.10
2022-08-20T02:47:56.788Z,11.60
2022-08-20T02:48:56.512Z,11.90
2022-08-20T02:49:56.509Z,12.90
2022-08-20T02:50:56.507Z,11.60
2022-08-20T02:51:56.517Z,11.70
2022-08-20T02:52:56.513Z,12.30
2022-08-20T02:53:56.519Z,11.90
2022-08-20T02:54:56.515Z,12.60
2022-08-20T02:55:56.521Z,12.30
2022-08-20T02:56:56.522Z,12.50
2022-08-20T02:57:58.524Z,11.50
2022-08-20T02:58:56.525Z,12.10
2022-08-20T02:59:56.531Z,11.80
2022-08-20T03:00:56.555Z,12.00
2022-08-20T03:02:00.512Z,12.00
2022-08-20T03:02:56.534Z,12.00
2022-08-20T03:03:56.545Z,11.60
2022-08-20T03:04:56.540Z,11.20
2022-08-20T03:05:56.546Z,11.90
2022-08-20T03:06:56.544Z,12.20
2022-08-20T03:07:56.971Z,11.90
2022-08-20T03:08:56.551Z,12.00
2022-08-20T03:09:56.556Z,12.50
2022-08-20T03:10:56.555Z,12.30
2022-08-20T03:11:56.560Z,11.40
2022-08-20T03:12:56.558Z,12.80
2022-08-20T03:13:56.562Z,11.60
2022-08-20T03:14:56.564Z,11.90
2022-08-20T03:15:58.581Z,11.20
2022-08-20T03:16:56.568Z,11.80
2022-08-20T03:17:56.767Z,12.50
2022-08-20T03:18:56.576Z,12.20
2022-08-20T03:19:56.577Z,12.20
2022-08-20T03:20:56.578Z,11.80
2022-08-20T03:21:56.587Z,13.60
2022-08-20T03:22:56.584Z,11.30
2022-08-20T03:23:56.588Z,12.30
2022-08-20T03:24:56.588Z,11.40
2022-08-20T03:25:56.591Z,11.90
2022-08-20T03:26:56.595Z,11.60
2022-08-20T03:27:56.920Z,11.80
2022-08-20T03:28:56.597Z,12.20
2022-08-20T03:29:56.608Z,12.80
2022-08-20T03:30:56.608Z,11.30
2022-08-20T03:31:56.613Z,11.20
2022-08-20T03:32:56.609Z,11.20
2022-08-20T03:33:56.613Z,11.70
2022-08-20T03:34:56.611Z,11.20
2022-08-20T03:35:56.818Z,11.70
2022-08-20T03:36:56.614Z,11.70
2022-08-20T03:37:56.790Z,12.00
2022-08-20T03:38:56.621Z,13.10
2022-08-20T03:39:56.684Z,11.50
2022-08-20T03:40:56.637Z,11.80
2022-08-20T03:41:56.628Z,11.70
2022-08-20T03:42:56.631Z,11.30
2022-08-20T03:43:56.638Z,11.60
2022-08-20T03:44:59.108Z,12.40
2022-08-20T03:45:56.638Z,11.70
2022-08-20T03:46:56.637Z,11.90
2022-08-20T03:47:56.799Z,11.30
2022-08-20T03:49:00.687Z,10.80
2022-08-20T03:49:56.647Z,10.70
2022-08-20T03:50:56.646Z,10.70
2022-08-20T03:51:58.476Z,10.60
2022-08-20T03:52:56.651Z,10.90
2022-08-20T03:53:56.659Z,11.90
2022-08-20T03:54:56.659Z,10.40
2022-08-20T03:56:01.745Z,10.20
2022-08-20T03:56:56.663Z,11.10
2022-08-20T03:57:56.787Z,10.50
2022-08-20T03:58:56.741Z,10.50
2022-08-20T03:59:58.434Z,11.50
2022-08-20T04:00:56.717Z,11.30
2022-08-20T04:01:56.709Z,10.90
2022-08-20T04:02:56.677Z,11.10
2022-08-20T04:03:56.684Z,10.90
2022-08-20T04:04:56.691Z,11.40
2022-08-20T04:05:56.683Z,11.20
2022-08-20T04:06:56.688Z,11.40
2022-08-20T04:07:56.995Z,10.80
2022-08-20T04:08:56.691Z,11.90
2022-08-20T04:09:56.692Z,10.60
2022-08-20T04:10:56.695Z,11.60
2022-08-20T04:11:56.697Z,12.00
2022-08-20T04:12:56.699Z,10.90
2022-08-20T04:13:56.701Z,11.30
2022-08-20T04:14:56.702Z,10.90
2022-08-20T04:15:56.709Z,12.20
2022-08-20T04:16:56.708Z,10.90
2022-08-20T04:17:56.907Z,10.40
2022-08-20T04:19:01.581Z,11.10
2022-08-20T04:19:56.720Z,12.80
2022-08-20T04:20:56.718Z,11.60
2022-08-20T04:21:56.723Z,12.30
2022-08-20T04:22:59.467Z,12.30
2022-08-20T04:23:56.735Z,11.30
2022-08-20T04:24:56.726Z,11.70
2022-08-20T04:25:56.761Z,12.60
2022-08-20T04:26:56.731Z,12.20
2022-08-20T04:27:56.923Z,13.10
2022-08-20T04:28:56.735Z,12.40
2022-08-20T04:29:56.742Z,11.60
2022-08-20T04:30:56.751Z,11.90
2022-08-20T04:31:56.742Z,12.80
2022-08-20T04:32:56.745Z,11.20
2022-08-20T04:33:56.749Z,11.50
2022-08-20T04:34:56.749Z,13.80
2022-08-20T04:35:56.958Z,13.40
2022-08-20T04:36:56.755Z,13.50
2022-08-20T04:37:56.923Z,12.60
2022-08-20T04:38:56.761Z,13.20
2022-08-20T04:39:56.821Z,11.40
2022-08-20T04:40:56.765Z,12.90
2022-08-20T04:41:56.768Z,12.40
2022-08-20T04:42:56.770Z,12.90
2022-08-20T04:43:56.772Z,12.90
2022-08-20T04:44:56.775Z,13.20
2022-08-20T04:45:56.777Z,16.60
2022-08-20T04:46:56.779Z,16.40
2022-08-20T04:47:57.010Z,16.80
2022-08-20T04:48:56.787Z,17.00
2022-08-20T04:49:57.429Z,14.00
2022-08-20T04:50:56.787Z,13.40
2022-08-20T04:51:56.796Z,13.00
2022-08-20T04:52:56.800Z,13.60
2022-08-20T04:53:56.793Z,13.90
2022-08-20T04:54:56.795Z,13.50
2022-08-20T04:55:56.798Z,12.90
2022-08-20T04:56:56.803Z,14.00
2022-08-20T04:57:57.033Z,14.80
2022-08-20T04:58:56.804Z,13.20
2022-08-20T04:59:59.462Z,14.10
2022-08-20T05:00:56.873Z,14.50
2022-08-20T05:01:56.813Z,14.40
2022-08-20T05:02:56.815Z,13.90
2022-08-20T05:03:57.206Z,14.70
2022-08-20T05:04:56.817Z,13.10
2022-08-20T05:05:56.821Z,13.20
2022-08-20T05:06:56.825Z,13.10
2022-08-20T05:07:56.990Z,11.70
2022-08-20T05:08:56.826Z,12.80
2022-08-20T05:09:56.835Z,11.40
2022-08-20T05:11:15.530Z,11.70
2022-08-20T05:11:56.833Z,10.80
2022-08-20T05:12:57.424Z,11.50
2022-08-20T05:13:56.845Z,12.10
2022-08-20T05:14:56.845Z,11.10
2022-08-20T05:15:56.845Z,10.40
2022-08-20T05:16:56.847Z,11.40
2022-08-20T05:17:57.111Z,10.50
2022-08-20T05:18:56.850Z,10.60
2022-08-20T05:19:56.853Z,11.30
2022-08-20T05:20:56.855Z,10.40
2022-08-20T05:21:56.860Z,11.00
2022-08-20T05:22:56.863Z,10.20
2022-08-20T05:23:56.865Z,9.40
2022-08-20T05:24:56.863Z,9.70
2022-08-20T05:25:56.870Z,11.20
2022-08-20T05:26:56.870Z,11.00
2022-08-20T05:27:57.054Z,11.20
2022-08-20T05:28:58.470Z,11.80
2022-08-20T05:29:56.876Z,10.30
2022-08-20T05:30:56.881Z,10.50
2022-08-20T05:31:56.888Z,10.60
2022-08-20T05:32:56.881Z,11.50
2022-08-20T05:33:56.883Z,11.00
2022-08-20T05:34:56.884Z,10.30
2022-08-20T05:35:56.887Z,9.70
2022-08-20T05:36:56.890Z,10.10
2022-08-20T05:37:57.100Z,9.10
2022-08-20T05:38:56.899Z,8.20
2022-08-20T05:39:57.014Z,7.40
2022-08-20T05:40:56.898Z,7.40
2022-08-20T05:41:56.911Z,7.70
2022-08-20T05:42:56.900Z,8.10
2022-08-20T05:43:56.905Z,8.40
2022-08-20T05:44:56.906Z,9.20
2022-08-20T05:45:56.965Z,9.40
2022-08-20T05:46:56.910Z,9.80
2022-08-20T05:47:56.922Z,9.60
2022-08-20T05:48:59.803Z,9.40
2022-08-20T05:49:56.919Z,8.70
2022-08-20T05:50:56.918Z,9.10
2022-08-20T05:51:56.923Z,10.30
2022-08-20T05:52:56.922Z,10.40
2022-08-20T05:53:57.443Z,11.10
2022-08-20T05:54:56.936Z,11.30
2022-08-20T05:55:56.930Z,12.10
2022-08-20T05:56:56.940Z,11.50
2022-08-20T05:57:57.065Z,9.70
2022-08-20T05:58:56.937Z,10.60
2022-08-20T05:59:56.941Z,12.00
2022-08-20T06:00:56.981Z,12.10
2022-08-20T06:01:56.945Z,11.90
2022-08-20T06:02:56.947Z,12.10
2022-08-20T06:03:56.950Z,12.50
2022-08-20T06:04:56.950Z,13.40
2022-08-20T06:05:56.955Z,12.90
2022-08-20T06:06:56.956Z,12.30
2022-08-20T06:07:59.438Z,12.50
2022-08-20T06:08:56.966Z,13.40
2022-08-20T06:09:56.961Z,12.30
2022-08-20T06:10:56.962Z,12.30
2022-08-20T06:11:59.221Z,12.30
2022-08-20T06:12:56.966Z,12.70
2022-08-20T06:13:56.970Z,11.50
2022-08-20T06:14:56.975Z,10.90
2022-08-20T06:15:56.977Z,11.30
2022-08-20T06:16:57.671Z,11.00
2022-08-20T06:17:58.391Z,10.80
2022-08-20T06:18:58.253Z,11.80
2022-08-20T06:19:56.980Z,10.70
2022-08-20T06:20:56.982Z,10.70
2022-08-20T06:21:56.984Z,11.10
2022-08-20T06:22:56.985Z,11.30
2022-08-20T06:24:00.813Z,10.10
2022-08-20T06:24:56.992Z,9.90
2022-08-20T06:25:56.999Z,10.40
2022-08-20T06:26:56.999Z,10.20
2022-08-20T06:27:57.129Z,10.00
2022-08-20T06:28:56.999Z,10.10
2022-08-20T06:29:57.001Z,10.60
2022-08-20T06:30:57.003Z,10.30
2022-08-20T06:31:57.013Z,10.80
2022-08-20T06:32:57.006Z,11.00
2022-08-20T06:33:57.104Z,10.00
2022-08-20T06:34:57.010Z,10.20
2022-08-20T06:35:57.017Z,10.10
2022-08-20T06:36:57.013Z,13.90
2022-08-20T06:37:57.111Z,15.90
2022-08-20T06:38:57.019Z,19.30
2022-08-20T06:39:57.097Z,19.80
2022-08-20T06:40:57.021Z,20.70
2022-08-20T06:41:57.025Z,21.50
2022-08-20T06:42:57.026Z,22.50
2022-08-20T06:43:57.029Z,20.60
2022-08-20T06:44:57.031Z,20.60
2022-08-20T06:45:57.033Z,21.70
2022-08-20T06:46:57.032Z,22.50
2022-08-20T06:47:57.141Z,24.30
2022-08-20T06:48:57.037Z,22.70
2022-08-20T06:49:57.036Z,23.90
2022-08-20T06:50:57.039Z,24.00
2022-08-20T06:51:57.043Z,25.00
2022-08-20T06:52:57.042Z,25.80
2022-08-20T06:53:57.047Z,24.60
2022-08-20T06:54:57.049Z,23.60
2022-08-20T06:55:57.048Z,25.30
2022-08-20T06:56:57.053Z,22.10
2022-08-20T06:57:57.051Z,24.50
2022-08-20T06:58:57.057Z,26.60
2022-08-20T06:59:57.058Z,27.80
2022-08-20T07:00:57.164Z,26.40
2022-08-20T07:01:57.057Z,31.30
2022-08-20T07:02:57.207Z,31.20
2022-08-20T07:03:57.064Z,32.10
2022-08-20T07:04:57.066Z,29.70
2022-08-20T07:05:57.071Z,28.90
2022-08-20T07:06:57.071Z,28.90
2022-08-20T07:07:57.071Z,32.00
2022-08-20T07:08:57.074Z,34.50
2022-08-20T07:09:57.077Z,34.80
2022-08-20T07:10:57.075Z,38.70
2022-08-20T07:11:57.077Z,40.70
2022-08-20T07:12:57.316Z,38.80
2022-08-20T07:13:57.165Z,42.70
2022-08-20T07:14:57.089Z,44.40
2022-08-20T07:15:57.083Z,40.70
2022-08-20T07:16:57.086Z,42.10
2022-08-20T07:18:00.951Z,42.60
2022-08-20T07:18:57.090Z,45.00
2022-08-20T07:19:57.094Z,42.40
2022-08-20T07:20:57.465Z,43.20
2022-08-20T07:21:57.092Z,45.00
2022-08-20T07:22:57.298Z,45.60
2022-08-20T07:23:57.100Z,49.10
2022-08-20T07:24:57.100Z,50.80
2022-08-20T07:25:57.098Z,44.90
2022-08-20T07:26:57.109Z,50.50
2022-08-20T07:27:57.107Z,47.70
2022-08-20T07:28:57.105Z,46.70
2022-08-20T07:29:57.106Z,47.30
2022-08-20T07:30:57.817Z,47.50
2022-08-20T07:31:57.110Z,48.80
2022-08-20T07:32:57.220Z,48.80
2022-08-20T07:33:57.115Z,46.40
2022-08-20T07:34:57.117Z,46.00
2022-08-20T07:35:57.120Z,45.00
2022-08-20T07:36:57.125Z,46.70
2022-08-20T07:37:57.120Z,46.30
2022-08-20T07:38:57.145Z,45.60
2022-08-20T07:39:57.168Z,50.70
2022-08-20T07:40:57.147Z,44.90
2022-08-20T07:41:57.131Z,48.60
2022-08-20T07:42:57.306Z,49.60
2022-08-20T07:43:57.130Z,49.60
2022-08-20T07:44:57.137Z,51.40
2022-08-20T07:45:57.142Z,48.50
2022-08-20T07:46:57.139Z,48.50
2022-08-20T07:47:57.139Z,48.00
2022-08-20T07:48:57.140Z,48.20
2022-08-20T07:49:57.139Z,47.30
2022-08-20T07:50:57.147Z,50.20
2022-08-20T07:51:57.147Z,49.20
2022-08-20T07:52:57.334Z,48.00
2022-08-20T07:53:57.149Z,49.50
2022-08-20T07:54:57.150Z,52.20
2022-08-20T07:55:58.926Z,48.80
2022-08-20T07:56:57.156Z,51.70
2022-08-20T07:57:57.153Z,50.00
2022-08-20T07:58:57.165Z,51.70
2022-08-20T07:59:57.260Z,45.80
2022-08-20T08:00:57.181Z,49.30
2022-08-20T08:01:57.160Z,46.80
2022-08-20T08:02:57.288Z,45.30
2022-08-20T08:03:57.163Z,45.50
2022-08-20T08:04:57.170Z,44.60
2022-08-20T08:05:57.175Z,46.50
2022-08-20T08:06:57.171Z,44.20
2022-08-20T08:07:57.172Z,45.30
2022-08-20T08:08:57.177Z,46.10
2022-08-20T08:09:57.174Z,43.40
2022-08-20T08:10:57.178Z,43.50
2022-08-20T08:11:57.178Z,40.90
2022-08-20T08:12:57.292Z,42.00
2022-08-20T08:13:57.186Z,41.20
2022-08-20T08:14:57.184Z,40.20
2022-08-20T08:15:57.185Z,38.10
2022-08-20T08:16:57.191Z,39.60
2022-08-20T08:17:57.186Z,40.10
2022-08-20T08:18:57.193Z,40.20
2022-08-20T08:19:57.194Z,40.40
2022-08-20T08:20:57.196Z,37.10
2022-08-20T08:21:57.202Z,41.80
2022-08-20T08:22:57.445Z,40.60
2022-08-20T08:23:57.203Z,36.80
2022-08-20T08:24:57.756Z,38.40
2022-08-20T08:25:57.207Z,37.30
2022-08-20T08:26:57.205Z,36.00
2022-08-20T08:27:57.205Z,36.40
2022-08-20T08:28:57.205Z,38.30
2022-08-20T08:29:57.206Z,37.40
2022-08-20T08:30:57.211Z,37.20
2022-08-20T08:31:57.211Z,34.20
2022-08-20T08:32:57.377Z,37.70
2022-08-20T08:33:57.214Z,35.00
2022-08-20T08:34:57.225Z,33.70
2022-08-20T08:35:57.221Z,36.10
2022-08-20T08:36:57.469Z,33.20
2022-08-20T08:37:57.220Z,34.10
2022-08-20T08:38:57.221Z,35.80
2022-08-20T08:39:57.277Z,32.80
2022-08-20T08:41:00.036Z,35.30
2022-08-20T08:41:57.228Z,35.60
2022-08-20T08:42:57.450Z,32.50
2022-08-20T08:43:57.231Z,34.40
2022-08-20T08:44:57.249Z,35.00
2022-08-20T08:45:57.232Z,32.70
2022-08-20T08:46:57.235Z,32.70
2022-08-20T08:47:57.238Z,33.20
2022-08-20T08:48:57.242Z,32.50
2022-08-20T08:49:57.239Z,31.70
2022-08-20T08:50:57.243Z,34.70
2022-08-20T08:51:57.246Z,32.90
2022-08-20T08:52:57.358Z,34.90
2022-08-20T08:53:57.247Z,35.50
2022-08-20T08:54:57.250Z,32.80
2022-08-20T08:55:57.249Z,32.80
2022-08-20T08:56:57.267Z,33.40
2022-08-20T08:57:57.251Z,34.90
2022-08-20T08:58:57.267Z,33.10
2022-08-20T09:00:03.512Z,32.50
2022-08-20T09:00:57.598Z,33.90
2022-08-20T09:01:57.653Z,33.00
2022-08-20T09:02:57.587Z,29.60
2022-08-20T09:03:57.261Z,30.00
2022-08-20T09:04:57.273Z,32.90
2022-08-20T09:05:57.269Z,31.70
2022-08-20T09:06:57.268Z,30.60
2022-08-20T09:07:57.267Z,33.10
2022-08-20T09:08:57.270Z,32.60
2022-08-20T09:09:57.272Z,29.70
2022-08-20T09:10:57.281Z,32.70
2022-08-20T09:11:57.273Z,30.90
2022-08-20T09:12:57.314Z,31.40
2022-08-20T09:13:57.283Z,32.30
2022-08-20T09:14:57.285Z,32.40
2022-08-20T09:15:57.284Z,32.20
2022-08-20T09:16:57.285Z,31.60
2022-08-20T09:17:57.521Z,32.30
2022-08-20T09:18:57.290Z,32.90
2022-08-20T09:19:57.286Z,32.60
2022-08-20T09:20:57.296Z,32.10
2022-08-20T09:21:57.294Z,33.10
2022-08-20T09:22:57.466Z,29.90
2022-08-20T09:23:57.293Z,33.80
2022-08-20T09:24:57.297Z,29.20
2022-08-20T09:25:57.295Z,32.00
2022-08-20T09:26:57.301Z,31.50
2022-08-20T09:27:57.302Z,30.40
2022-08-20T09:28:57.384Z,31.90
2022-08-20T09:29:57.305Z,31.30
2022-08-20T09:30:57.310Z,29.80
2022-08-20T09:31:57.357Z,27.70
2022-08-20T09:32:57.532Z,29.70
2022-08-20T09:33:57.318Z,29.90
2022-08-20T09:34:57.318Z,31.30
2022-08-20T09:35:57.313Z,29.10
2022-08-20T09:36:57.568Z,27.60
2022-08-20T09:37:57.473Z,29.90
2022-08-20T09:38:57.324Z,30.00
2022-08-20T09:39:57.365Z,30.10
2022-08-20T09:40:57.326Z,29.20
2022-08-20T09:41:57.329Z,30.20
2022-08-20T09:42:57.417Z,26.60
2022-08-20T09:43:57.328Z,28.90
2022-08-20T09:44:57.330Z,28.80
2022-08-20T09:45:57.329Z,25.60
2022-08-20T09:46:57.333Z,28.10
2022-08-20T09:47:57.459Z,27.00
2022-08-20T09:48:57.338Z,27.20
2022-08-20T09:49:57.338Z,26.10
2022-08-20T09:50:57.342Z,27.70
2022-08-20T09:51:57.343Z,26.60
2022-08-20T09:52:57.343Z,28.20
2022-08-20T09:53:57.383Z,28.70
2022-08-20T09:54:57.346Z,31.60
2022-08-20T09:55:57.347Z,31.90
2022-08-20T09:56:57.350Z,31.60
2022-08-20T09:57:57.523Z,33.70
2022-08-20T09:59:01.113Z,32.20
2022-08-20T09:59:57.353Z,33.20
2022-08-20T10:00:57.361Z,33.00
2022-08-20T10:01:57.476Z,30.30
2022-08-20T10:02:57.362Z,34.10
2022-08-20T10:03:57.361Z,32.50
2022-08-20T10:04:57.575Z,33.40
2022-08-20T10:05:57.366Z,30.60
2022-08-20T10:06:57.378Z,31.70
2022-08-20T10:07:57.545Z,33.70
2022-08-20T10:08:57.371Z,33.30
2022-08-20T10:09:57.370Z,32.10
2022-08-20T10:10:57.372Z,32.40
2022-08-20T10:11:57.376Z,32.40
2022-08-20T10:12:57.376Z,31.50
2022-08-20T10:13:57.379Z,31.00
2022-08-20T10:14:57.379Z,29.00
2022-08-20T10:15:57.380Z,31.70
2022-08-20T10:16:59.864Z,29.00
2022-08-20T10:17:57.625Z,29.50
2022-08-20T10:18:57.386Z,29.20
2022-08-20T10:19:57.389Z,30.50
2022-08-20T10:20:57.393Z,29.80
2022-08-20T10:21:57.397Z,30.40
2022-08-20T10:22:57.400Z,31.90
2022-08-20T10:23:57.420Z,31.00
2022-08-20T10:24:57.398Z,30.80
2022-08-20T10:25:57.401Z,33.00
2022-08-20T10:26:57.404Z,30.00
2022-08-20T10:27:57.635Z,31.50
2022-08-20T10:28:57.406Z,31.00
2022-08-20T10:29:57.406Z,33.30
2022-08-20T10:30:57.418Z,29.70
2022-08-20T10:31:57.416Z,31.80
2022-08-20T10:32:57.414Z,29.30
2022-08-20T10:33:57.443Z,31.10
2022-08-20T10:34:57.411Z,30.80
2022-08-20T10:36:00.006Z,29.30
2022-08-20T10:36:57.418Z,31.10
2022-08-20T10:37:57.532Z,31.90
2022-08-20T10:38:57.421Z,32.40
2022-08-20T10:39:57.487Z,30.10
2022-08-20T10:40:57.425Z,30.40
2022-08-20T10:41:57.423Z,28.90
2022-08-20T10:42:57.429Z,29.60
2022-08-20T10:43:57.428Z,28.60
2022-08-20T10:44:57.428Z,29.60
2022-08-20T10:45:57.430Z,30.40
2022-08-20T10:46:57.432Z,29.80
2022-08-20T10:47:57.607Z,27.30
2022-08-20T10:48:57.437Z,28.60
2022-08-20T10:49:57.436Z,28.50
2022-08-20T10:50:57.443Z,28.90
2022-08-20T10:51:57.443Z,29.80
2022-08-20T10:52:57.445Z,32.00
2022-08-20T10:53:57.442Z,30.70
2022-08-20T10:54:57.450Z,30.70
2022-08-20T10:55:57.447Z,29.00
2022-08-20T10:56:57.454Z,31.50
2022-08-20T10:57:57.620Z,31.20
2022-08-20T10:58:57.454Z,31.00
2022-08-20T10:59:57.455Z,29.20
2022-08-20T11:00:57.456Z,30.50
2022-08-20T11:01:57.513Z,27.70
2022-08-20T11:02:57.461Z,28.30
2022-08-20T11:03:57.461Z,28.80
2022-08-20T11:04:57.466Z,29.20
2022-08-20T11:05:57.465Z,26.30
2022-08-20T11:06:57.468Z,28.50
2022-08-20T11:07:57.467Z,27.50
2022-08-20T11:08:57.472Z,30.20
2022-08-20T11:09:57.472Z,31.70
2022-08-20T11:10:57.479Z,29.20
2022-08-20T11:11:57.478Z,29.20
2022-08-20T11:12:57.481Z,27.50
2022-08-20T11:13:57.483Z,30.60
2022-08-20T11:14:57.486Z,31.30
2022-08-20T11:15:57.486Z,28.10
2022-08-20T11:16:57.488Z,27.50
2022-08-20T11:17:57.776Z,30.80
2022-08-20T11:18:57.497Z,28.90
2022-08-20T11:19:57.495Z,28.50
2022-08-20T11:20:57.495Z,27.10
2022-08-20T11:21:57.499Z,24.40
2022-08-20T11:22:57.496Z,28.60
2022-08-20T11:24:02.230Z,26.90
2022-08-20T11:24:57.500Z,28.40
2022-08-20T11:25:57.502Z,31.30
2022-08-20T11:26:57.502Z,28.60
2022-08-20T11:27:57.835Z,27.00
2022-08-20T11:28:57.509Z,26.80
2022-08-20T11:29:57.510Z,26.70
2022-08-20T11:30:57.509Z,26.10
2022-08-20T11:31:57.516Z,28.00
2022-08-20T11:32:57.516Z,24.20
2022-08-20T11:33:57.520Z,25.40
2022-08-20T11:34:57.517Z,24.60
2022-08-20T11:35:57.524Z,24.00
2022-08-20T11:36:57.672Z,24.50
2022-08-20T11:37:57.778Z,26.10
2022-08-20T11:38:57.524Z,23.00
2022-08-20T11:39:57.574Z,23.80
2022-08-20T11:40:57.528Z,26.30
2022-08-20T11:41:57.539Z,23.20
2022-08-20T11:43:24.029Z,24.50
2022-08-20T11:44:20.347Z,26.20
2022-08-20T11:44:57.538Z,23.30
2022-08-20T11:45:57.539Z,25.50
2022-08-20T11:46:57.539Z,25.40
2022-08-20T11:47:57.833Z,24.50
2022-08-20T11:48:57.547Z,24.00
2022-08-20T11:49:57.548Z,24.50
2022-08-20T11:50:57.550Z,23.00
2022-08-20T11:51:57.555Z,22.20
2022-08-20T11:52:57.552Z,22.90
2022-08-20T11:53:57.554Z,23.80
2022-08-20T11:54:57.555Z,26.10
2022-08-20T11:55:57.568Z,24.00
2022-08-20T11:56:57.560Z,21.90
2022-08-20T11:57:59.564Z,23.10
2022-08-20T11:58:57.562Z,22.00
2022-08-20T11:59:57.567Z,20.50
2022-08-20T12:00:57.566Z,22.30
2022-08-20T12:02:03.250Z,21.50
2022-08-20T12:02:57.731Z,21.00
2022-08-20T12:03:57.572Z,19.60
2022-08-20T12:04:57.574Z,22.20
2022-08-20T12:05:57.578Z,17.90
2022-08-20T12:06:57.577Z,19.10
2022-08-20T12:07:57.586Z,21.80
2022-08-20T12:08:57.582Z,19.30
2022-08-20T12:09:57.588Z,21.40
2022-08-20T12:10:57.603Z,20.80
2022-08-20T12:11:57.593Z,20.30
2022-08-20T12:12:57.914Z,23.10
2022-08-20T12:13:57.594Z,22.50
2022-08-20T12:14:57.597Z,23.00
2022-08-20T12:15:57.600Z,21.30
2022-08-20T12:16:57.597Z,21.90
2022-08-20T12:17:57.605Z,19.20
2022-08-20T12:18:57.606Z,19.40
2022-08-20T12:19:57.608Z,19.00
2022-08-20T12:20:57.607Z,19.80
2022-08-20T12:21:57.608Z,21.40
2022-08-20T12:22:57.837Z,19.60
2022-08-20T12:23:57.611Z,19.00
2022-08-20T12:24:57.616Z,22.90
2022-08-20T12:25:57.624Z,19.50
2022-08-20T12:26:57.617Z,18.50
2022-08-20T12:27:57.693Z,20.40
2022-08-20T12:28:57.650Z,17.50
2022-08-20T12:29:57.637Z,18.10
2022-08-20T12:30:57.631Z,16.90
2022-08-20T12:31:57.630Z,19.10
2022-08-20T12:32:57.899Z,18.90
2022-08-20T12:33:57.631Z,18.50
2022-08-20T12:34:57.633Z,19.20
2022-08-20T12:35:57.639Z,19.50
2022-08-20T12:36:57.988Z,19.10
2022-08-20T12:37:57.642Z,18.30
2022-08-20T12:38:57.641Z,18.90
2022-08-20T12:39:57.706Z,16.30
2022-08-20T12:40:57.647Z,17.10
2022-08-20T12:41:57.649Z,16.00
2022-08-20T12:42:57.810Z,18.80
2022-08-20T12:43:57.654Z,17.90
2022-08-20T12:44:57.654Z,16.30
2022-08-20T12:45:57.654Z,18.70
2022-08-20T12:46:57.659Z,17.50
2022-08-20T12:47:57.664Z,17.20
2022-08-20T12:48:57.660Z,16.50
2022-08-20T12:49:57.668Z,16.20
2022-08-20T12:50:57.665Z,16.40
2022-08-20T12:51:57.668Z,18.10
2022-08-20T12:52:57.965Z,18.50
2022-08-20T12:53:57.669Z,16.70
2022-08-20T12:54:57.670Z,17.50